EDW22 LSZH-MDPP
Flight info
| Callsign | EDW22 |
|---|---|
| Flight time | N/A |
| Altitude | 34000 |
| Route | VEBIT T10 TORPA DCT REKLA DCT RLP DCT ROTSI/N0486F380 DCT AMODO DCT COHPA UM729 RESMI UN491 EKRAS UN585 UPALO/N0489F370 UN585 FEJAC DCT REGHI/M085F380 DCT ETIKI DCT 47N015W 46N020W 45N030W 40N040W/M085F400 35N050W DCT SIFEN M596 WATRS/N0487F400 M596 POKEG POKEG2S |
| Aircraft | A359/H-SABDE2E3GHIJ2J3J4J5M1P2RWXYZ/LB1D1 |
Departure
| Time | N/A |
|---|---|
| Airport | Zürich Airport (LSZH) |
Arrival
| Time | 2026-05-05 15:41 |
|---|---|
| Airport | Gregorio Luperon International Airport (MDPP) |
| Time | Latitude | Longitude | Altitude | Speed | Heading |
|---|---|---|---|---|---|
| 2026-05-05 15:28 | 19.91544 | -70.48108 | 10739 ft | 304 kts | 236° |
| 2026-05-05 15:28 | 19.90394 | -70.49987 | 10263 ft | 303 kts | 236° |
| 2026-05-05 15:29 | 19.89264 | -70.51836 | 10037 ft | 293 kts | 235° |
| 2026-05-05 15:29 | 19.88188 | -70.53599 | 10000 ft | 275 kts | 235° |
| 2026-05-05 15:29 | 19.87542 | -70.54663 | 10006 ft | 266 kts | 235° |
| 2026-05-05 15:30 | 19.86590 | -70.56219 | 9999 ft | 261 kts | 235° |
| 2026-05-05 15:30 | 19.85615 | -70.57811 | 9719 ft | 257 kts | 235° |
| 2026-05-05 15:30 | 19.84630 | -70.59416 | 9197 ft | 262 kts | 235° |
| 2026-05-05 15:31 | 19.83634 | -70.61039 | 8639 ft | 262 kts | 234° |
| 2026-05-05 15:31 | 19.83449 | -70.61342 | 8519 ft | 262 kts | 234° |
| 2026-05-05 15:31 | 19.82502 | -70.62888 | 7917 ft | 261 kts | 234° |
| 2026-05-05 15:31 | 19.82325 | -70.63176 | 7797 ft | 261 kts | 234° |
| 2026-05-05 15:32 | 19.82292 | -70.63231 | 7764 ft | 261 kts | 234° |
| 2026-05-05 15:32 | 19.81315 | -70.64827 | 7317 ft | 254 kts | 234° |
| 2026-05-05 15:32 | 19.80380 | -70.66358 | 7171 ft | 244 kts | 234° |
| 2026-05-05 15:32 | 19.79635 | -70.67960 | 6985 ft | 242 kts | 247° |
| 2026-05-05 15:33 | 19.79212 | -70.69284 | 6709 ft | 244 kts | 250° |
| 2026-05-05 15:33 | 19.78947 | -70.70196 | 6532 ft | 243 kts | 250° |
| 2026-05-05 15:33 | 19.78462 | -70.71907 | 6243 ft | 240 kts | 250° |
| 2026-05-05 15:33 | 19.77979 | -70.73600 | 5966 ft | 239 kts | 250° |
| 2026-05-05 15:34 | 19.77494 | -70.75288 | 5693 ft | 239 kts | 250° |
| 2026-05-05 15:34 | 19.77009 | -70.76971 | 5413 ft | 237 kts | 250° |
| 2026-05-05 15:34 | 19.76524 | -70.78645 | 5195 ft | 237 kts | 250° |
| 2026-05-05 15:34 | 19.76003 | -70.80291 | 4929 ft | 234 kts | 243° |
| 2026-05-05 15:35 | 19.75030 | -70.81617 | 4686 ft | 224 kts | 212° |
| 2026-05-05 15:35 | 19.73626 | -70.82119 | 4503 ft | 209 kts | 179° |
| 2026-05-05 15:35 | 19.72241 | -70.81881 | 4365 ft | 197 kts | 163° |
| 2026-05-05 15:35 | 19.70971 | -70.81409 | 4186 ft | 190 kts | 153° |
| 2026-05-05 15:36 | 19.69988 | -70.80545 | 4150 ft | 183 kts | 128° |
| 2026-05-05 15:36 | 19.69513 | -70.79293 | 3994 ft | 188 kts | 99° |
| 2026-05-05 15:36 | 19.69658 | -70.77916 | 3745 ft | 190 kts | 78° |
| 2026-05-05 15:36 | 19.70122 | -70.76596 | 3530 ft | 191 kts | 72° |
| 2026-05-05 15:37 | 19.70548 | -70.75281 | 3292 ft | 185 kts | 77° |
| 2026-05-05 15:37 | 19.70912 | -70.73989 | 3039 ft | 180 kts | 75° |
| 2026-05-05 15:37 | 19.71280 | -70.72707 | 2775 ft | 178 kts | 76° |
| 2026-05-05 15:37 | 19.71639 | -70.71465 | 2520 ft | 175 kts | 75° |
| 2026-05-05 15:38 | 19.71980 | -70.70284 | 2305 ft | 164 kts | 73° |
| 2026-05-05 15:38 | 19.72308 | -70.69136 | 2086 ft | 157 kts | 73° |
| 2026-05-05 15:38 | 19.72623 | -70.68038 | 1878 ft | 153 kts | 73° |
| 2026-05-05 15:38 | 19.72921 | -70.66997 | 1692 ft | 145 kts | 73° |
| 2026-05-05 15:39 | 19.73214 | -70.65976 | 1497 ft | 145 kts | 73° |
| 2026-05-05 15:39 | 19.73507 | -70.64954 | 1306 ft | 145 kts | 73° |
| 2026-05-05 15:39 | 19.73799 | -70.63933 | 1105 ft | 144 kts | 73° |
| 2026-05-05 15:39 | 19.74092 | -70.62913 | 926 ft | 144 kts | 73° |
| 2026-05-05 15:40 | 19.74379 | -70.61910 | 732 ft | 138 kts | 73° |
| 2026-05-05 15:40 | 19.74651 | -70.60966 | 533 ft | 130 kts | 73° |
| 2026-05-05 15:40 | 19.74906 | -70.60065 | 405 ft | 128 kts | 72° |
| 2026-05-05 15:40 | 19.75160 | -70.59165 | 224 ft | 127 kts | 72° |
| 2026-05-05 15:41 | 19.75420 | -70.58265 | 55 ft | 127 kts | 73° |
| 2026-05-05 15:41 | 19.75662 | -70.57423 | 43 ft | 110 kts | 72° |
| 2026-05-05 15:41 | 19.75818 | -70.56892 | 46 ft | 48 kts | 73° |
| 2026-05-05 15:41 | 19.75843 | -70.56804 | 46 ft | 10 kts | 73° |
| 2026-05-05 15:42 | 19.75845 | -70.56800 | 46 ft | 1 kts | 72° |
| 2026-05-05 15:42 | 19.75863 | -70.56735 | 45 ft | 19 kts | 73° |
| 2026-05-05 15:42 | 19.75880 | -70.56675 | 48 ft | 19 kts | 73° |
| 2026-05-05 15:42 | 19.75897 | -70.56614 | 45 ft | 19 kts | 75° |
| 2026-05-05 15:43 | 19.75930 | -70.56479 | 44 ft | 10 kts | 94° |
| 2026-05-05 15:43 | 19.75900 | -70.56442 | 49 ft | 8 kts | 144° |
| 2026-05-05 15:43 | 19.75848 | -70.56422 | 51 ft | 8 kts | 163° |
| 2026-05-05 15:43 | 19.75790 | -70.56404 | 47 ft | 9 kts | 163° |
| 2026-05-05 15:44 | 19.75726 | -70.56388 | 50 ft | 8 kts | 178° |
| 2026-05-05 15:44 | 19.75670 | -70.56402 | 52 ft | 10 kts | 187° |
| 2026-05-05 15:44 | 19.75613 | -70.56425 | 51 ft | 6 kts | 210° |
| 2026-05-05 15:44 | 19.75610 | -70.56427 | 55 ft | 0 kts | 209° |
| 2026-05-05 15:45 | 19.75608 | -70.56428 | 54 ft | 1 kts | 208° |
| 2026-05-05 15:45 | 19.75606 | -70.56429 | 55 ft | 0 kts | 208° |